createdAt,value
2022-09-07T00:03:27.207Z,47.63
2022-09-07T00:08:24.028Z,47.67
2022-09-07T00:13:17.760Z,47.26
2022-09-07T00:18:11.773Z,47.46
2022-09-07T00:23:04.700Z,46.61
2022-09-07T00:27:57.764Z,46.93
2022-09-07T00:32:51.018Z,46.50
2022-09-07T00:37:45.125Z,47.05
2022-09-07T00:42:39.357Z,46.70
2022-09-07T00:48:18.083Z,46.60
2022-09-07T00:53:21.853Z,46.90
2022-09-07T00:58:15.083Z,46.88
2022-09-07T01:03:11.703Z,47.03
2022-09-07T01:08:06.964Z,46.93
2022-09-07T01:13:01.141Z,47.27
2022-09-07T01:18:27.379Z,47.58
2022-09-07T01:23:39.311Z,47.44
2022-09-07T01:28:37.043Z,47.89
2022-09-07T01:33:42.196Z,47.69
2022-09-07T01:38:38.521Z,47.79
2022-09-07T01:44:06.804Z,47.28
2022-09-07T01:49:30.005Z,46.79
2022-09-07T01:54:35.414Z,47.17
2022-09-07T01:59:37.252Z,47.22
2022-09-07T02:04:50.870Z,46.75
2022-09-07T02:09:55.512Z,47.11
2022-09-07T02:14:54.933Z,46.77
2022-09-07T02:20:00.620Z,47.34
2022-09-07T02:24:59.558Z,47.47
2022-09-07T02:29:53.276Z,47.96
2022-09-07T02:34:47.836Z,47.79
2022-09-07T02:39:45.098Z,48.47
2022-09-07T02:44:46.199Z,48.93
2022-09-07T02:50:18.587Z,49.87
2022-09-07T02:55:22.547Z,49.58
2022-09-07T03:00:26.748Z,49.08
2022-09-07T03:05:25.856Z,48.99
2022-09-07T03:10:19.924Z,49.23
2022-09-07T03:15:22.245Z,49.15
2022-09-07T03:20:16.793Z,49.50
2022-09-07T03:25:12.445Z,48.57
2022-09-07T03:30:09.326Z,48.03
2022-09-07T03:35:04.243Z,47.69
2022-09-07T03:39:57.924Z,47.27
2022-09-07T03:44:55.229Z,47.25
2022-09-07T03:49:50.004Z,46.79
2022-09-07T03:54:47.867Z,47.17
2022-09-07T03:59:41.562Z,47.33
2022-09-07T04:04:35.552Z,47.43
2022-09-07T04:09:28.950Z,47.66
2022-09-07T04:14:23.388Z,47.85
2022-09-07T04:19:17.644Z,47.80
2022-09-07T04:24:11.877Z,47.10
2022-09-07T04:29:07.515Z,46.23
2022-09-07T04:34:04.678Z,46.50
2022-09-07T04:39:03.319Z,45.95
2022-09-07T04:43:59.874Z,46.40
2022-09-07T04:48:55.928Z,46.07
2022-09-07T04:53:50.783Z,45.89
2022-09-07T04:58:44.568Z,46.50
2022-09-07T05:03:40.087Z,46.57
2022-09-07T05:08:44.006Z,46.13
2022-09-07T05:13:38.077Z,46.37
2022-09-07T05:18:32.534Z,46.07
2022-09-07T05:23:27.062Z,45.68
2022-09-07T05:28:20.982Z,45.67
2022-09-07T05:33:15.029Z,45.47
2022-09-07T05:38:08.816Z,46.44
2022-09-07T05:43:02.645Z,46.24
2022-09-07T05:47:56.991Z,46.17
2022-09-07T05:52:51.090Z,45.66
2022-09-07T05:57:45.333Z,45.28
2022-09-07T06:02:39.899Z,45.25
2022-09-07T06:07:33.884Z,45.65
2022-09-07T06:12:28.343Z,44.93
2022-09-07T06:17:22.454Z,45.25
2022-09-07T06:22:16.181Z,45.24
2022-09-07T06:27:10.601Z,45.79
2022-09-07T06:37:18.404Z,46.38
2022-09-07T06:42:13.108Z,46.70
2022-09-07T06:47:11.503Z,46.85
2022-09-07T06:52:04.863Z,47.07
2022-09-07T06:56:59.768Z,47.32
2022-09-07T07:01:53.570Z,47.55
2022-09-07T07:06:47.367Z,47.32
2022-09-07T07:11:44.244Z,47.50
2022-09-07T07:16:41.984Z,47.86
2022-09-07T07:21:55.305Z,48.20
2022-09-07T07:26:50.707Z,47.66
2022-09-07T07:31:45.079Z,48.17
2022-09-07T07:36:39.736Z,47.74
2022-09-07T07:46:49.627Z,48.22
2022-09-07T07:56:57.077Z,48.85
2022-09-07T08:01:51.763Z,50.05
2022-09-07T08:06:45.463Z,55.55
2022-09-07T08:11:40.458Z,55.72
2022-09-07T08:16:38.108Z,57.26
2022-09-07T08:21:31.380Z,58.05
2022-09-07T08:26:28.997Z,58.29
2022-09-07T08:31:23.196Z,58.30
2022-09-07T08:36:19.999Z,57.97
2022-09-07T08:41:31.956Z,57.74
2022-09-07T08:46:27.970Z,58.70
2022-09-07T08:51:36.125Z,59.14
2022-09-07T08:56:35.284Z,59.75
2022-09-07T09:01:41.618Z,60.04
2022-09-07T09:07:01.400Z,60.66
2022-09-07T09:12:07.286Z,59.47
2022-09-07T09:17:35.952Z,60.44
2022-09-07T09:22:30.393Z,59.59
2022-09-07T09:27:27.437Z,60.19
2022-09-07T09:33:03.007Z,60.69
2022-09-07T09:37:58.205Z,59.61
2022-09-07T09:43:19.479Z,59.58
2022-09-07T09:48:25.083Z,59.76
2022-09-07T09:53:33.206Z,59.38
2022-09-07T10:04:04.687Z,60.05
2022-09-07T10:09:00.626Z,60.17
2022-09-07T10:13:58.276Z,59.37
2022-09-07T10:18:59.716Z,59.74
2022-09-07T10:24:15.731Z,59.91
2022-09-07T10:29:08.926Z,59.21
2022-09-07T10:34:39.194Z,57.68
2022-09-07T10:40:01.684Z,56.94
2022-09-07T10:44:57.523Z,57.97
2022-09-07T10:55:26.310Z,56.58
2022-09-07T11:00:21.940Z,56.32
2022-09-07T11:05:56.341Z,54.78
2022-09-07T11:11:08.467Z,55.18
2022-09-07T11:16:07.811Z,55.98
2022-09-07T11:21:04.109Z,55.27
2022-09-07T11:26:34.828Z,55.63
2022-09-07T11:32:08.474Z,55.32
2022-09-07T11:37:21.052Z,55.46
2022-09-07T11:47:46.263Z,55.02
2022-09-07T11:52:44.021Z,55.28
2022-09-07T11:58:10.890Z,54.73
2022-09-07T12:03:09.013Z,54.59
2022-09-07T12:08:23.274Z,54.15
2022-09-07T12:13:55.059Z,54.66
2022-09-07T12:19:18.649Z,54.37
2022-09-07T12:24:36.488Z,55.16
2022-09-07T12:29:31.668Z,54.44
2022-09-07T12:34:33.699Z,53.93
2022-09-07T12:39:29.300Z,54.35
2022-09-07T12:44:28.566Z,54.03
2022-09-07T12:49:31.737Z,53.91
2022-09-07T12:55:16.486Z,53.83
2022-09-07T13:00:15.985Z,54.05
2022-09-07T13:05:36.601Z,53.90
2022-09-07T13:10:36.855Z,53.70
2022-09-07T13:15:41.534Z,54.60
2022-09-07T13:20:40.608Z,53.92
2022-09-07T13:25:37.853Z,55.50
2022-09-07T13:31:08.728Z,53.57
2022-09-07T13:36:06.609Z,53.80
2022-09-07T13:41:16.663Z,53.35
2022-09-07T13:46:33.472Z,53.59
2022-09-07T13:51:46.361Z,54.09
2022-09-07T13:57:00.820Z,54.64
2022-09-07T14:01:54.902Z,54.83
2022-09-07T14:06:49.332Z,54.77
2022-09-07T14:11:49.428Z,54.65
2022-09-07T14:16:46.709Z,55.63
2022-09-07T14:21:40.751Z,57.05
2022-09-07T14:26:34.826Z,57.13
2022-09-07T14:31:29.224Z,56.81
2022-09-07T14:36:45.609Z,57.43
2022-09-07T14:41:41.446Z,57.46
2022-09-07T14:46:38.677Z,56.26
2022-09-07T14:51:36.431Z,56.24
2022-09-07T14:56:42.361Z,55.51
2022-09-07T15:01:37.803Z,54.48
2022-09-07T15:12:19.723Z,54.79
2022-09-07T15:17:49.000Z,54.62
2022-09-07T15:22:44.212Z,54.71
2022-09-07T15:27:39.283Z,54.28
2022-09-07T15:32:34.204Z,54.39
2022-09-07T15:47:53.909Z,54.56
2022-09-07T15:52:47.450Z,54.19
2022-09-07T15:57:51.269Z,54.19
2022-09-07T16:03:06.606Z,54.18
2022-09-07T16:13:16.911Z,53.95
2022-09-07T16:18:11.563Z,53.89
2022-09-07T16:23:20.781Z,54.33
2022-09-07T16:28:14.573Z,54.04
2022-09-07T16:33:08.614Z,53.68
2022-09-07T16:43:17.991Z,53.93
2022-09-07T16:48:12.715Z,53.90
2022-09-07T16:53:07.081Z,53.45
2022-09-07T17:03:14.381Z,54.09
2022-09-07T17:08:08.376Z,53.36
2022-09-07T17:13:04.370Z,54.30
2022-09-07T17:18:00.819Z,54.51
2022-09-07T17:22:55.067Z,54.53
2022-09-07T17:27:49.365Z,54.21
2022-09-07T17:32:43.152Z,54.24
2022-09-07T17:37:37.049Z,54.64
2022-09-07T17:47:44.756Z,53.39
2022-09-07T17:52:40.444Z,52.75
2022-09-07T17:57:39.378Z,52.78
2022-09-07T18:02:33.575Z,54.04
2022-09-07T18:07:27.955Z,54.00
2022-09-07T18:12:22.025Z,53.10
2022-09-07T18:17:20.029Z,52.71
2022-09-07T18:22:15.278Z,52.99
2022-09-07T18:27:10.651Z,52.66
2022-09-07T18:32:08.929Z,52.78
2022-09-07T18:37:03.122Z,52.68
2022-09-07T18:41:57.253Z,52.81
2022-09-07T18:46:50.809Z,52.80
2022-09-07T18:56:58.453Z,53.74
2022-09-07T19:01:53.953Z,54.22
2022-09-07T19:06:47.638Z,54.26
2022-09-07T19:12:00.956Z,54.56
2022-09-07T19:16:54.344Z,54.15
2022-09-07T19:21:48.252Z,54.69
2022-09-07T19:26:45.300Z,54.66
2022-09-07T19:31:39.626Z,54.04
2022-09-07T19:36:34.813Z,53.88
2022-09-07T19:41:28.028Z,53.22
2022-09-07T19:46:24.968Z,52.68
2022-09-07T19:51:18.536Z,54.40
2022-09-07T19:56:33.290Z,54.69
2022-09-07T20:01:26.631Z,54.22
2022-09-07T20:06:20.696Z,54.93
2022-09-07T20:11:17.269Z,54.84
2022-09-07T20:16:14.559Z,54.88
2022-09-07T20:21:13.915Z,55.44
2022-09-07T20:26:10.035Z,55.11
2022-09-07T20:31:26.309Z,55.45
2022-09-07T20:36:22.617Z,55.46
2022-09-07T20:41:22.377Z,55.05
2022-09-07T20:46:15.863Z,55.08
2022-09-07T20:51:12.339Z,55.27
2022-09-07T20:56:08.667Z,55.81
2022-09-07T21:01:01.979Z,56.19
2022-09-07T21:05:55.374Z,55.72
2022-09-07T21:10:49.208Z,55.09
2022-09-07T21:15:44.434Z,55.19
2022-09-07T21:20:38.575Z,55.34
2022-09-07T21:25:32.086Z,54.90
2022-09-07T21:30:26.010Z,55.14
2022-09-07T21:35:19.893Z,55.06
2022-09-07T21:40:14.195Z,55.17
2022-09-07T21:45:11.255Z,55.08
2022-09-07T21:50:06.579Z,54.95
2022-09-07T21:55:00.125Z,54.81
2022-09-07T21:59:53.905Z,54.55
2022-09-07T22:04:47.410Z,54.45
2022-09-07T22:09:41.012Z,54.64
2022-09-07T22:14:35.063Z,54.54
2022-09-07T22:19:29.344Z,54.29
2022-09-07T22:24:23.872Z,53.72
2022-09-07T22:29:16.829Z,53.61
2022-09-07T22:34:15.119Z,53.59
2022-09-07T22:39:14.306Z,53.69
2022-09-07T22:44:10.761Z,53.35
2022-09-07T22:49:04.626Z,53.19
2022-09-07T22:53:58.320Z,52.97
2022-09-07T22:59:02.949Z,52.87
2022-09-07T23:03:57.286Z,53.03
2022-09-07T23:08:52.867Z,52.98
2022-09-07T23:13:45.786Z,52.93
2022-09-07T23:18:42.729Z,53.09
2022-09-07T23:23:36.879Z,52.34
2022-09-07T23:28:31.994Z,52.27
2022-09-07T23:33:26.594Z,52.15
2022-09-07T23:38:20.273Z,52.74
2022-09-07T23:43:18.097Z,52.29
2022-09-07T23:48:11.815Z,52.04
2022-09-07T23:53:05.844Z,52.10
2022-09-07T23:57:59.779Z,52.12
